Time;durP1;ratioP1;P1;durP2;ratioP2;P2;SDS_P1;SDS_P2;PMS_P1;PMS_P2;Temp;Humidity;BMP_temperature;BMP_pressure;BME280_temperature;BME280_humidity;BME280_pressure;Samples;Min_cycle;Max_cycle;Signal;HPM_P1;HPM_P2
2022/01/19 00:01:36;;;;;;;4.43;2.13;;;21.50;64.80;;;;;;7839991;28;20182;-49
2022/01/19 00:05:22;;;;;;;3.95;2.20;;;21.40;64.80;;;;;;7839981;28;20236;-49
2022/01/19 00:09:08;;;;;;;5.25;2.33;;;21.40;64.80;;;;;;7839509;28;20244;-49
2022/01/19 00:12:57;;;;;;;4.38;2.00;;;21.30;64.90;;;;;;7839675;28;20182;-49
2022/01/19 00:16:43;;;;;;;3.65;2.28;;;21.30;64.90;;;;;;7839744;28;20762;-49
2022/01/19 00:20:31;;;;;;;2.55;2.22;;;21.30;64.90;;;;;;7839375;28;20520;-52
2022/01/19 00:24:16;;;;;;;3.13;2.20;;;21.30;65.00;;;;;;7839556;28;20701;-52
2022/01/19 00:28:02;;;;;;;3.88;2.10;;;21.30;65.10;;;;;;7839034;28;20682;-49
2022/01/19 00:31:47;;;;;;;3.83;2.42;;;21.20;65.00;;;;;;7839410;28;20180;-49
2022/01/19 00:35:36;;;;;;;3.00;2.10;;;21.20;65.10;;;;;;7839551;28;20532;-50
2022/01/19 00:39:24;;;;;;;3.13;2.00;;;21.20;65.10;;;;;;7839161;28;20543;-50
2022/01/19 00:43:11;;;;;;;3.42;2.10;;;21.10;65.10;;;;;;7839328;28;20257;-51
2022/01/19 00:46:56;;;;;;;3.28;1.92;;;21.10;65.20;;;;;;7838491;28;20205;-49
2022/01/19 00:50:42;;;;;;;3.63;2.05;;;21.10;65.20;;;;;;7838528;28;20247;-49
2022/01/19 00:54:27;;;;;;;3.58;1.83;;;21.10;65.20;;;;;;7838593;28;20205;-49
2022/01/19 00:58:13;;;;;;;3.20;1.88;;;21.00;65.20;;;;;;7838221;28;20699;-49
2022/01/19 01:02:01;;;;;;;2.63;1.90;;;21.00;65.20;;;;;;7837496;28;20261;-50
2022/01/19 01:05:46;;;;;;;2.35;1.75;;;21.00;65.20;;;;;;7838320;28;20209;-50
2022/01/19 01:09:32;;;;;;;2.55;1.90;;;20.90;65.20;;;;;;7837896;28;20692;-50
2022/01/19 01:13:23;;;;;;;2.72;1.90;;;20.90;65.30;;;;;;7838185;28;20177;-50
2022/01/19 01:17:12;;;;;;;2.00;1.70;;;20.90;65.30;;;;;;7837627;28;20238;-49
2022/01/19 01:20:59;;;;;;;2.15;1.83;;;20.90;65.30;;;;;;7837945;28;20228;-51
2022/01/19 01:24:44;;;;;;;3.25;2.03;;;20.90;65.40;;;;;;7838359;28;20544;-50
2022/01/19 01:28:30;;;;;;;2.20;1.75;;;20.80;65.30;;;;;;7837956;28;20267;-49
2022/01/19 01:32:15;;;;;;;4.22;2.03;;;20.80;65.30;;;;;;7838108;28;20264;-49
2022/01/19 01:36:02;;;;;;;2.72;2.13;;;20.80;65.40;;;;;;7837989;28;20174;-49
2022/01/19 01:39:47;;;;;;;2.40;1.92;;;20.80;65.50;;;;;;7837781;28;20205;-49
2022/01/19 01:43:33;;;;;;;2.25;1.88;;;20.80;65.50;;;;;;7837826;28;20324;-51
2022/01/19 01:47:20;;;;;;;4.82;1.90;;;20.70;65.40;;;;;;7837574;28;20296;-50
2022/01/19 01:55:12;;;;;;;2.63;1.80;;;20.70;65.50;;;;;;7837618;28;20174;-51
2022/01/19 01:58:58;;;;;;;2.97;1.85;;;20.70;65.60;;;;;;7837176;28;20268;-49
2022/01/19 02:02:44;;;;;;;1.92;1.70;;;20.60;65.70;;;;;;7837463;28;20193;-52
2022/01/19 02:06:39;;;;;;;2.03;1.60;;;20.60;65.60;;;;;;7837357;28;20653;-49
2022/01/19 02:10:39;;;;;;;1.98;1.75;;;20.60;65.70;;;;;;7837082;28;20675;-49
2022/01/19 02:22:36;;;;;;;2.15;1.75;;;20.60;65.70;;;;;;7843052;28;20178;-50
2022/01/19 02:26:30;;;;;;;2.95;1.67;;;20.50;65.70;;;;;;7842801;28;20170;-51
2022/01/19 02:31:05;;;;;;;2.72;1.85;;;20.50;65.70;;;;;;7842643;28;20258;-50
2022/01/19 02:43:07;;;;;;;2.80;2.10;;;20.50;65.70;;;;;;7842542;28;20610;-49
2022/01/19 02:50:57;;;;;;;2.78;1.98;;;20.40;65.90;;;;;;7842029;28;20170;-49
2022/01/19 02:54:43;;;;;;;2.72;2.30;;;20.40;65.80;;;;;;7842049;28;20655;-51
2022/01/19 02:58:29;;;;;;;2.10;1.90;;;20.30;65.80;;;;;;7841609;28;20200;-49
2022/01/19 03:10:23;;;;;;;2.28;2.08;;;20.30;66.00;;;;;;7841736;28;20197;-50
2022/01/19 03:14:08;;;;;;;2.35;2.05;;;20.30;66.10;;;;;;7841371;28;20236;-49
2022/01/19 03:17:58;;;;;;;3.10;2.13;;;20.30;66.10;;;;;;7841016;28;20243;-49
2022/01/19 03:21:44;;;;;;;3.78;2.30;;;20.30;66.20;;;;;;7841509;28;20235;-49
2022/01/19 03:25:36;;;;;;;3.45;2.15;;;20.30;66.20;;;;;;7840691;28;20206;-49
2022/01/19 03:29:21;;;;;;;3.28;2.05;;;20.20;66.20;;;;;;7840694;28;20237;-50
2022/01/19 03:33:07;;;;;;;2.75;2.30;;;20.20;66.20;;;;;;7840935;28;20193;-49
2022/01/19 03:36:52;;;;;;;4.25;2.03;;;20.20;66.20;;;;;;7840773;28;20174;-50
2022/01/19 03:40:38;;;;;;;4.32;2.30;;;20.20;66.20;;;;;;7840596;28;20177;-49
2022/01/19 03:44:24;;;;;;;4.60;2.38;;;20.20;66.30;;;;;;7840452;28;20239;-49
2022/01/19 03:48:26;;;;;;;5.45;2.33;;;20.20;66.30;;;;;;7840072;28;20209;-51
2022/01/19 03:52:12;;;;;;;3.28;2.33;;;20.20;66.40;;;;;;7840319;28;20636;-49
2022/01/19 03:55:57;;;;;;;2.20;2.00;;;20.20;66.50;;;;;;7840182;28;20638;-49
2022/01/19 03:59:43;;;;;;;3.20;2.15;;;20.20;66.50;;;;;;7839785;28;20319;-50
2022/01/19 04:03:47;;;;;;;2.95;2.20;;;20.20;66.50;;;;;;7840064;28;20639;-49
2022/01/19 04:07:33;;;;;;;3.33;2.15;;;20.20;66.50;;;;;;7839674;28;20235;-49
2022/01/19 04:11:21;;;;;;;2.10;1.90;;;20.20;66.50;;;;;;7839907;28;20181;-50
2022/01/19 04:15:07;;;;;;;2.45;2.05;;;20.30;66.70;;;;;;7839918;28;20186;-51
2022/01/19 04:19:02;;;;;;;8.40;2.20;;;20.20;66.50;;;;;;7839423;28;20675;-51
2022/01/19 04:22:47;;;;;;;3.05;2.30;;;20.20;66.50;;;;;;7839805;28;20182;-49
2022/01/19 04:26:33;;;;;;;3.25;2.20;;;20.20;66.50;;;;;;7839611;28;20679;-52
2022/01/19 04:30:20;;;;;;;2.50;2.30;;;20.30;66.40;;;;;;7839435;28;20204;-49
2022/01/19 04:34:07;;;;;;;2.30;2.05;;;20.30;66.40;;;;;;7839602;28;20181;-49
2022/01/19 04:46:55;;;;;;;3.08;2.25;;;20.30;66.30;;;;;;7837375;28;20259;-51
2022/01/19 04:54:52;;;;;;;2.80;2.50;;;20.30;66.20;;;;;;7838699;28;20177;-50
2022/01/19 05:03:13;;;;;;;4.47;2.60;;;20.30;66.30;;;;;;7838478;28;20189;-49
2022/01/19 05:07:14;;;;;;;3.70;2.60;;;20.30;66.20;;;;;;7838198;28;20251;-51
2022/01/19 05:15:08;;;;;;;2.53;2.33;;;20.30;66.30;;;;;;7838214;28;20174;-49
2022/01/19 05:18:53;;;;;;;3.15;2.40;;;20.20;66.20;;;;;;7835911;28;20194;-49
2022/01/19 05:22:39;;;;;;;8.00;2.25;;;20.30;66.20;;;;;;7819545;28;20233;-49
2022/01/19 05:26:24;;;;;;;11.88;2.70;;;20.20;66.20;;;;;;7827848;28;20585;-50
2022/01/19 05:30:10;;;;;;;8.02;3.00;;;20.30;66.30;;;;;;7836096;28;20198;-50
2022/01/19 05:33:56;;;;;;;3.65;3.17;;;20.30;66.10;;;;;;7819053;28;20198;-51
2022/01/19 05:37:41;;;;;;;9.13;3.20;;;20.30;66.10;;;;;;7827023;28;20433;-50
2022/01/19 05:41:27;;;;;;;17.75;3.28;;;20.10;67.00;;;;;;7831355;28;20189;-50
2022/01/19 05:45:12;;;;;;;11.23;3.00;;;20.20;66.90;;;;;;7805598;28;20691;-51
2022/01/19 05:48:58;;;;;;;13.20;3.17;;;20.20;66.80;;;;;;7822766;28;20587;-49
2022/01/19 05:52:44;;;;;;;10.50;2.83;;;20.30;66.60;;;;;;7843055;28;20205;-56
2022/01/19 05:56:29;;;;;;;13.60;3.17;;;20.30;66.60;;;;;;7842905;28;20223;-49
2022/01/19 06:00:15;;;;;;;10.18;3.00;;;20.30;66.70;;;;;;7842462;28;20190;-49
2022/01/19 06:04:00;;;;;;;10.57;3.38;;;20.30;66.50;;;;;;7828504;28;20255;-50
2022/01/19 06:07:48;;;;;;;12.25;3.22;;;20.30;66.70;;;;;;7811333;28;20206;-50
2022/01/19 06:11:33;;;;;;;8.32;3.30;;;20.40;67.40;;;;;;7811559;28;20166;-51
2022/01/19 06:15:19;;;;;;;8.13;2.72;;;20.30;66.50;;;;;;7811530;28;20167;-52
2022/01/19 06:19:04;;;;;;;7.35;3.30;;;20.30;66.50;;;;;;7825612;28;20240;-49
2022/01/19 06:22:50;;;;;;;8.77;3.40;;;20.30;66.60;;;;;;7842190;28;20209;-53
2022/01/19 06:26:36;;;;;;;8.75;3.10;;;20.30;66.60;;;;;;7841974;28;20675;-53
2022/01/19 06:30:21;;;;;;;7.35;3.42;;;20.40;66.70;;;;;;7841109;28;20599;-49
2022/01/19 06:34:07;;;;;;;7.50;3.80;;;20.30;66.70;;;;;;7826152;28;20178;-53
2022/01/19 06:37:53;;;;;;;11.77;4.28;;;20.30;66.90;;;;;;7810321;28;20202;-52
2022/01/19 06:41:38;;;;;;;11.90;4.32;;;20.30;66.80;;;;;;7812275;28;20182;-51
2022/01/19 06:45:24;;;;;;;16.45;3.58;;;20.30;66.70;;;;;;7807726;28;20198;-51
2022/01/19 06:49:10;;;;;;;15.15;3.97;;;20.30;66.90;;;;;;7826096;28;20326;-53
2022/01/19 06:52:55;;;;;;;7.68;3.70;;;20.30;66.70;;;;;;7841362;28;20178;-53
2022/01/19 06:56:41;;;;;;;10.38;3.78;;;20.30;66.80;;;;;;7840905;28;20235;-52
2022/01/19 07:00:27;;;;;;;18.23;3.85;;;20.30;66.70;;;;;;7835451;28;20251;-51
2022/01/19 07:04:15;;;;;;;14.00;3.88;;;20.30;66.90;;;;;;7817281;28;20186;-49
2022/01/19 07:08:01;;;;;;;9.90;4.05;;;20.30;66.70;;;;;;7808973;28;20218;-50
2022/01/19 07:11:46;;;;;;;12.93;4.75;;;20.40;66.70;;;;;;7809860;28;20187;-51
2022/01/19 07:15:32;;;;;;;6.95;3.63;;;20.30;66.60;;;;;;7809899;28;20174;-48
2022/01/19 07:19:17;;;;;;;9.95;4.05;;;20.30;66.70;;;;;;7826787;28;20289;-49
2022/01/19 07:23:03;;;;;;;7.93;4.10;;;20.30;66.70;;;;;;7840371;28;20664;-48
2022/01/19 07:26:48;;;;;;;13.73;4.35;;;20.30;66.80;;;;;;7840147;28;20573;-48
2022/01/19 07:30:35;;;;;;;22.33;4.97;;;20.30;66.70;;;;;;7839645;28;20666;-49
2022/01/19 07:34:20;;;;;;;13.25;3.60;;;20.30;66.70;;;;;;7821258;28;20241;-53
2022/01/19 07:38:06;;;;;;;16.55;4.20;;;20.30;67.00;;;;;;7808697;28;20206;-49
2022/01/19 07:41:53;;;;;;;8.63;4.15;;;20.30;67.10;;;;;;7806297;28;20190;-49
2022/01/19 07:45:39;;;;;;;17.75;4.70;;;20.40;67.10;;;;;;7808323;28;20198;-48
2022/01/19 07:49:24;;;;;;;8.32;4.38;;;20.40;67.10;;;;;;7827543;28;20687;-48
2022/01/19 07:53:10;;;;;;;14.45;4.38;;;20.30;67.00;;;;;;7839598;28;20197;-50
2022/01/19 07:56:56;;;;;;;9.77;4.25;;;20.40;67.20;;;;;;7839145;28;20273;-49
2022/01/19 08:00:42;;;;;;;8.68;4.20;;;20.40;67.20;;;;;;7839049;28;20311;-48
2022/01/19 08:04:27;;;;;;;12.88;4.30;;;20.40;67.20;;;;;;7817744;28;20190;-48
2022/01/19 08:08:13;;;;;;;15.60;5.20;;;20.30;67.10;;;;;;7814110;28;20490;-47
2022/01/19 08:11:59;;;;;;;14.50;4.80;;;20.30;68.10;;;;;;7835912;28;20416;-48
2022/01/19 08:15:44;;;;;;;12.15;4.50;;;20.20;68.40;;;;;;7839691;28;20644;-49
2022/01/19 08:19:30;;;;;;;14.20;5.25;;;20.30;67.80;;;;;;7818115;28;20632;-47
2022/01/19 08:23:15;;;;;;;8.98;4.50;;;20.40;67.50;;;;;;7807987;28;20186;-48
2022/01/19 08:27:01;;;;;;;14.73;4.45;;;20.50;67.20;;;;;;7807860;28;20206;-51
2022/01/19 08:30:47;;;;;;;10.50;4.95;;;20.50;67.10;;;;;;7807659;28;20182;-47
2022/01/19 08:34:33;;;;;;;15.27;5.05;;;20.60;67.00;;;;;;7829108;28;20659;-47
2022/01/19 08:38:19;;;;;;;8.73;4.45;;;20.60;66.90;;;;;;7838375;28;20685;-48
2022/01/19 08:42:04;;;;;;;8.18;4.38;;;20.60;66.80;;;;;;7838391;28;20220;-50
2022/01/19 08:45:51;;;;;;;6.03;5.05;;;20.60;66.80;;;;;;7838760;28;20198;-50
2022/01/19 08:49:37;;;;;;;12.15;4.60;;;20.60;66.70;;;;;;7823977;28;20233;-48
2022/01/19 08:53:23;;;;;;;15.20;5.32;;;20.60;66.70;;;;;;7807430;28;20214;-51
2022/01/19 08:57:09;;;;;;;36.53;5.35;;;20.60;66.30;;;;;;7806777;28;20199;-49
2022/01/19 09:00:54;;;;;;;30.05;4.95;;;20.60;66.80;;;;;;7807945;28;20278;-49
2022/01/19 09:04:40;;;;;;;24.88;4.97;;;20.70;67.00;;;;;;7829714;28;20265;-51
2022/01/19 09:08:25;;;;;;;19.48;5.05;;;20.70;66.80;;;;;;7809023;28;20218;-49
2022/01/19 09:12:11;;;;;;;24.60;5.32;;;20.60;66.60;;;;;;7806637;28;20225;-48
2022/01/19 09:15:56;;;;;;;36.70;5.90;;;20.70;67.70;;;;;;7824799;28;20640;-48
2022/01/19 09:19:42;;;;;;;26.52;4.95;;;20.70;67.00;;;;;;7812031;28;20268;-52
2022/01/19 09:23:27;;;;;;;28.00;5.30;;;20.70;67.00;;;;;;7806196;28;20170;-48
2022/01/19 09:27:15;;;;;;;41.75;5.05;;;20.70;67.10;;;;;;7806619;28;20241;-49
2022/01/19 09:31:02;;;;;;;37.92;5.68;;;20.70;67.10;;;;;;7808296;28;20202;-49
2022/01/19 09:34:54;;;;;;;32.40;5.38;;;20.70;66.90;;;;;;7825245;28;20209;-48
2022/01/19 09:38:41;;;;;;;29.63;5.50;;;20.70;66.90;;;;;;7806457;28;20210;-48
2022/01/19 09:42:26;;;;;;;20.98;4.70;;;20.60;66.60;;;;;;7804189;28;20193;-48
2022/01/19 09:46:12;;;;;;;24.80;5.40;;;20.70;66.80;;;;;;7805839;28;20194;-49
2022/01/19 09:49:58;;;;;;;19.08;4.90;;;20.60;66.80;;;;;;7815575;28;20360;-52
2022/01/19 09:53:45;;;;;;;20.58;5.70;;;20.60;66.80;;;;;;7816420;28;20175;-47
2022/01/19 09:57:33;;;;;;;15.35;5.03;;;20.60;66.90;;;;;;7806077;28;20213;-48
2022/01/19 10:01:20;;;;;;;16.98;5.20;;;20.60;66.80;;;;;;7805955;28;20700;-48
2022/01/19 10:05:08;;;;;;;24.83;4.53;;;20.60;67.10;;;;;;7833891;28;20190;-48
2022/01/19 10:08:56;;;;;;;15.93;5.07;;;20.60;67.00;;;;;;7836515;28;20762;-48
2022/01/19 10:17:00;;;;;;;16.65;4.63;;;20.60;67.10;;;;;;7835960;28;20186;-47
2022/01/19 10:21:05;;;;;;;10.32;4.72;;;20.60;67.10;;;;;;7805650;28;20175;-47
2022/01/19 10:24:51;;;;;;;17.83;4.68;;;20.60;67.30;;;;;;7806087;28;20195;-47
2022/01/19 10:29:07;;;;;;;25.23;5.00;;;20.50;67.40;;;;;;7805592;28;20210;-48
2022/01/19 10:32:55;;;;;;;16.67;4.57;;;20.60;68.00;;;;;;7809918;28;20201;-51
2022/01/19 10:36:50;;;;;;;25.80;7.47;;;20.60;67.30;;;;;;7820648;28;20690;-48
2022/01/19 10:40:38;;;;;;;27.13;4.93;;;20.60;67.40;;;;;;7817278;28;20174;-48
2022/01/19 10:44:35;;;;;;;20.98;4.25;;;20.70;67.10;;;;;;7811059;28;20195;-48
2022/01/19 10:48:56;;;;;;;18.15;4.60;;;20.70;67.30;;;;;;7810649;28;20209;-50
2022/01/19 10:52:44;;;;;;;18.88;5.05;;;20.60;67.40;;;;;;7754368;28;20195;-47
2022/01/19 10:56:30;;;;;;;24.92;5.07;;;20.70;67.70;;;;;;7777597;28;20187;-49
2022/01/19 11:00:21;;;;;;;14.00;4.85;;;20.70;67.70;;;;;;7777020;28;20559;-48
2022/01/19 11:04:29;;;;;;;23.85;4.72;;;20.70;67.70;;;;;;7776706;28;20195;-52
2022/01/19 11:08:17;;;;;;;16.58;5.63;;;20.70;67.70;;;;;;7776622;28;20253;-51
2022/01/19 11:12:07;;;;;;;17.10;5.75;;;20.70;67.60;;;;;;7776621;28;20206;-47
2022/01/19 11:15:54;;;;;;;12.90;4.97;;;20.70;67.60;;;;;;7776008;28;20187;-48
2022/01/19 11:19:43;;;;;;;30.00;9.32;;;20.70;67.50;;;;;;7775317;28;20207;-49
2022/01/19 11:23:56;;;;;;;56.97;25.17;;;20.70;67.30;;;;;;7775747;28;20654;-49
2022/01/19 11:27:45;;;;;;;65.45;25.20;;;20.80;67.30;;;;;;7797012;28;20218;-47
2022/01/19 11:31:30;;;;;;;42.25;17.35;;;20.80;67.30;;;;;;7818709;28;20270;-47
2022/01/19 11:35:33;;;;;;;31.65;15.50;;;20.80;67.10;;;;;;7809688;28;20182;-50
2022/01/19 11:39:21;;;;;;;37.15;16.38;;;20.80;67.20;;;;;;7809167;28;20232;-47
2022/01/19 11:43:19;;;;;;;37.30;15.00;;;20.80;67.10;;;;;;7809132;28;20171;-47
2022/01/19 11:47:13;;;;;;;37.05;13.68;;;20.80;67.20;;;;;;7811291;28;20213;-48
2022/01/19 11:51:20;;;;;;;35.22;14.02;;;20.80;67.10;;;;;;7837803;28;20170;-48
2022/01/19 11:55:22;;;;;;;39.80;15.63;;;20.80;67.00;;;;;;7823136;28;20667;-48
2022/01/19 11:59:09;;;;;;;29.42;10.60;;;20.80;66.10;;;;;;7839497;28;20271;-48
2022/01/19 12:02:57;;;;;;;19.75;10.38;;;20.90;67.50;;;;;;7839253;28;20578;-49
2022/01/19 12:06:43;;;;;;;21.70;10.02;;;20.80;66.60;;;;;;7839453;28;20178;-48
2022/01/19 12:10:30;;;;;;;26.13;9.50;;;20.90;67.00;;;;;;7838966;28;20194;-47
2022/01/19 12:14:20;;;;;;;18.67;8.85;;;20.90;67.00;;;;;;7839467;28;20178;-49
2022/01/19 12:18:10;;;;;;;25.67;9.50;;;20.90;67.00;;;;;;7838938;28;20831;-47
2022/01/19 12:22:06;;;;;;;18.23;8.40;;;21.00;67.00;;;;;;7838840;28;20174;-47
2022/01/19 12:25:53;;;;;;;14.55;8.32;;;21.00;66.90;;;;;;7812061;28;20189;-46
2022/01/19 12:29:41;;;;;;;23.67;8.32;;;21.00;66.80;;;;;;7807811;28;20700;-48
2022/01/19 12:33:27;;;;;;;22.52;8.85;;;21.00;66.60;;;;;;7824860;28;20178;-48
2022/01/19 12:37:31;;;;;;;25.30;8.18;;;21.00;66.40;;;;;;7839003;28;20814;-47
2022/01/19 12:41:17;;;;;;;25.65;9.90;;;21.00;67.00;;;;;;7828432;28;20274;-47
2022/01/19 12:45:13;;;;;;;20.88;8.93;;;21.10;67.00;;;;;;7807153;28;20209;-47
2022/01/19 12:48:59;;;;;;;20.48;8.43;;;21.10;67.00;;;;;;7828539;28;20259;-47
2022/01/19 12:52:56;;;;;;;21.08;7.95;;;21.10;66.70;;;;;;7838325;28;20257;-48
2022/01/19 12:57:02;;;;;;;16.83;7.50;;;21.10;66.60;;;;;;7837998;28;20172;-50
2022/01/19 13:00:51;;;;;;;15.40;7.78;;;21.10;66.50;;;;;;7838078;28;20174;-47
2022/01/19 13:04:38;;;;;;;14.82;7.43;;;21.10;66.50;;;;;;7811047;28;20270;-51
2022/01/19 13:08:34;;;;;;;14.65;7.03;;;21.10;66.50;;;;;;7806644;28;20225;-48
2022/01/19 13:12:20;;;;;;;15.93;7.95;;;21.10;66.30;;;;;;7806690;28;20269;-48
2022/01/19 13:16:06;;;;;;;16.38;6.75;;;21.10;66.20;;;;;;7835320;28;20186;-47
2022/01/19 13:19:52;;;;;;;12.43;6.70;;;21.20;66.20;;;;;;7830934;28;20753;-48
2022/01/19 13:24:06;;;;;;;20.17;5.88;;;21.10;66.20;;;;;;7837656;28;20611;-48
2022/01/19 13:27:55;;;;;;;15.40;6.32;;;21.20;66.50;;;;;;7837212;28;20225;-49
2022/01/19 13:31:51;;;;;;;14.50;6.20;;;21.20;66.90;;;;;;7837546;28;20181;-47
2022/01/19 13:35:37;;;;;;;10.20;5.97;;;21.20;66.50;;;;;;7837436;28;20582;-49
2022/01/19 13:39:23;;;;;;;10.70;6.10;;;21.20;66.40;;;;;;7837074;28;20198;-49
2022/01/19 13:43:15;;;;;;;20.55;6.35;;;21.30;66.30;;;;;;7837386;28;20580;-48
2022/01/19 13:47:10;;;;;;;16.08;6.47;;;21.20;66.10;;;;;;7821032;28;20300;-47
2022/01/19 13:50:57;;;;;;;17.75;7.88;;;21.30;66.40;;;;;;7837272;28;20165;-47
2022/01/19 13:54:43;;;;;;;21.75;9.32;;;21.30;66.50;;;;;;7837456;28;20174;-48
2022/01/19 13:58:34;;;;;;;17.88;8.57;;;21.30;66.90;;;;;;7836962;28;20209;-48
2022/01/19 14:02:20;;;;;;;28.98;8.38;;;21.40;66.80;;;;;;7828253;28;20187;-48
2022/01/19 14:06:07;;;;;;;16.45;7.38;;;21.40;66.40;;;;;;7806784;28;20250;-47
2022/01/19 14:09:52;;;;;;;16.42;7.38;;;21.40;66.30;;;;;;7809582;28;20202;-47
2022/01/19 14:13:38;;;;;;;15.95;7.15;;;21.40;66.40;;;;;;7812486;28;20293;-49
2022/01/19 14:17:31;;;;;;;31.33;7.13;;;21.30;66.20;;;;;;7811654;28;20676;-52
2022/01/19 14:21:16;;;;;;;26.65;7.30;;;21.30;66.20;;;;;;7811814;28;20252;-48
2022/01/19 14:25:14;;;;;;;31.42;6.40;;;21.40;67.00;;;;;;7811407;28;20187;-48
2022/01/19 14:29:10;;;;;;;18.77;7.47;;;21.40;67.30;;;;;;7811224;28;20218;-50
2022/01/19 14:33:06;;;;;;;31.13;7.75;;;21.40;66.60;;;;;;7826124;28;20640;-47
2022/01/19 14:37:07;;;;;;;19.48;6.55;;;21.40;66.10;;;;;;7842239;28;20177;-48
2022/01/19 14:41:00;;;;;;;22.42;6.75;;;21.40;66.00;;;;;;7841995;28;20606;-48
2022/01/19 14:45:01;;;;;;;14.63;6.63;;;21.40;65.90;;;;;;7841979;28;20228;-51
2022/01/19 14:48:49;;;;;;;16.45;6.20;;;21.30;66.00;;;;;;7818991;28;20260;-47
2022/01/19 14:52:34;;;;;;;20.15;6.38;;;21.30;66.20;;;;;;7810872;28;20181;-50
2022/01/19 14:56:21;;;;;;;25.33;5.95;;;21.30;66.20;;;;;;7811589;28;20175;-48
2022/01/19 15:00:07;;;;;;;19.58;8.23;;;21.40;66.50;;;;;;7841422;28;20240;-47
2022/01/19 15:03:54;;;;;;;19.20;8.00;;;21.30;61.80;;;;;;7818178;28;20668;-55
2022/01/19 15:07:40;;;;;;;19.20;7.35;;;21.10;63.50;;;;;;7809532;28;20206;-51
2022/01/19 15:11:25;;;;;;;18.17;7.18;;;21.10;64.40;;;;;;7809854;28;20225;-51
2022/01/19 15:15:11;;;;;;;19.58;6.70;;;21.10;64.60;;;;;;7809621;28;20181;-56
2022/01/19 15:18:57;;;;;;;16.02;8.25;;;21.20;64.60;;;;;;7832998;28;20245;-55
2022/01/19 15:22:44;;;;;;;15.85;7.35;;;21.20;64.50;;;;;;7835175;28;20543;-52
2022/01/19 15:26:31;;;;;;;20.08;8.65;;;21.20;64.80;;;;;;7809462;28;20171;-51
2022/01/19 15:30:16;;;;;;;20.70;8.18;;;21.30;65.10;;;;;;7809045;28;20206;-51
2022/01/19 15:34:02;;;;;;;18.05;6.78;;;21.40;66.80;;;;;;7840075;28;20273;-50
2022/01/19 15:37:48;;;;;;;17.65;7.70;;;21.60;67.70;;;;;;7839510;28;20260;-53
2022/01/19 15:41:37;;;;;;;20.25;7.53;;;21.80;67.70;;;;;;7840000;28;20190;-51
2022/01/19 15:45:23;;;;;;;24.05;7.65;;;21.90;67.00;;;;;;7839736;28;20201;-50
2022/01/19 15:49:09;;;;;;;17.77;8.85;;;22.10;67.70;;;;;;7813191;28;20692;-52
2022/01/19 15:52:55;;;;;;;22.33;8.07;;;22.30;67.70;;;;;;7834675;28;20175;-50
2022/01/19 15:56:43;;;;;;;20.77;7.60;;;22.50;67.70;;;;;;7812531;28;20182;-52
2022/01/19 16:00:29;;;;;;;21.02;7.00;;;22.70;67.50;;;;;;7839527;28;20296;-53
2022/01/19 16:04:14;;;;;;;19.33;7.10;;;22.90;67.40;;;;;;7812898;28;20190;-51
2022/01/19 16:08:01;;;;;;;13.90;6.43;;;23.00;67.30;;;;;;7808390;28;20285;-50
2022/01/19 16:11:46;;;;;;;25.15;6.30;;;23.20;67.30;;;;;;7808484;28;20178;-53
2022/01/19 16:15:32;;;;;;;15.00;6.60;;;23.30;67.20;;;;;;7807470;28;20191;-50
2022/01/19 16:19:19;;;;;;;12.63;5.85;;;23.40;66.50;;;;;;7808174;28;20203;-51
2022/01/19 16:27:08;;;;;;;16.40;5.43;;;23.50;66.90;;;;;;7808539;28;20257;-50
2022/01/19 16:30:54;;;;;;;17.83;5.47;;;23.60;66.80;;;;;;7808425;28;20233;-50
2022/01/19 16:34:40;;;;;;;9.80;5.35;;;23.70;66.80;;;;;;7811153;28;20174;-50
2022/01/19 16:38:25;;;;;;;9.13;5.15;;;23.80;66.70;;;;;;7808298;28;20233;-53
2022/01/19 16:42:11;;;;;;;17.83;5.50;;;24.00;66.70;;;;;;7808198;28;20556;-51
2022/01/19 16:45:59;;;;;;;7.80;4.40;;;24.10;66.50;;;;;;7808016;28;20226;-52
2022/01/19 16:49:47;;;;;;;13.10;5.00;;;24.30;66.40;;;;;;7807826;28;20224;-53
2022/01/19 16:53:34;;;;;;;12.95;5.45;;;24.50;66.20;;;;;;7808013;28;20178;-50
2022/01/19 16:57:19;;;;;;;9.93;4.90;;;24.60;66.10;;;;;;7807641;28;20612;-53
2022/01/19 17:01:09;;;;;;;11.15;4.85;;;24.80;65.90;;;;;;7807511;28;20328;-51
2022/01/19 17:04:54;;;;;;;8.13;4.63;;;24.90;65.80;;;;;;7807862;28;20193;-53
2022/01/19 17:08:42;;;;;;;11.43;4.57;;;25.00;65.60;;;;;;7808532;28;20233;-53
2022/01/19 17:12:32;;;;;;;7.85;4.57;;;25.10;65.50;;;;;;7834002;28;20185;-52
2022/01/19 17:16:40;;;;;;;10.45;4.75;;;25.20;65.60;;;;;;7825628;28;20274;-52
2022/01/19 17:20:26;;;;;;;17.67;4.78;;;25.20;65.40;;;;;;7806494;28;20232;-54
2022/01/19 17:24:11;;;;;;;16.20;4.97;;;25.30;65.20;;;;;;7807378;28;20186;-54
2022/01/19 17:27:57;;;;;;;17.33;4.35;;;25.30;65.40;;;;;;7807227;28;20260;-50
2022/01/19 17:31:42;;;;;;;20.60;4.40;;;25.40;65.30;;;;;;7807240;28;20171;-54
2022/01/19 17:35:29;;;;;;;18.85;4.70;;;25.50;65.10;;;;;;7807200;28;20182;-52
2022/01/19 17:39:14;;;;;;;14.88;5.18;;;25.50;65.10;;;;;;7806808;28;20210;-52
2022/01/19 17:43:00;;;;;;;15.60;5.15;;;25.50;65.10;;;;;;7807755;28;20273;-51
2022/01/19 17:46:57;;;;;;;17.92;4.57;;;25.50;65.00;;;;;;7813403;28;20222;-50
2022/01/19 17:51:16;;;;;;;16.95;4.40;;;25.50;65.30;;;;;;7813219;28;20674;-55
2022/01/19 17:55:02;;;;;;;33.00;5.88;;;25.40;64.80;;;;;;7812869;28;20751;-54
2022/01/19 17:58:48;;;;;;;38.58;6.75;;;25.40;63.40;;;;;;7812744;28;20687;-52
2022/01/19 18:02:34;;;;;;;36.47;6.80;;;25.30;62.90;;;;;;7813070;28;20189;-53
2022/01/19 18:06:21;;;;;;;36.28;7.00;;;25.30;64.90;;;;;;7812993;28;20178;-53
2022/01/19 18:10:07;;;;;;;46.33;5.85;;;25.20;62.80;;;;;;7812786;28;20568;-52
2022/01/19 18:13:57;;;;;;;24.75;5.65;;;25.20;65.10;;;;;;7812828;28;20201;-50
2022/01/19 18:17:44;;;;;;;24.77;5.38;;;25.30;65.60;;;;;;7812164;28;20225;-51
2022/01/19 18:21:30;;;;;;;23.90;5.97;;;25.30;65.60;;;;;;7812671;28;20190;-50
2022/01/19 18:25:17;;;;;;;30.48;5.95;;;25.40;65.60;;;;;;7814275;28;20674;-55
2022/01/19 18:29:02;;;;;;;25.50;5.22;;;25.50;65.40;;;;;;7836751;28;20714;-55
2022/01/19 18:32:48;;;;;;;20.50;5.95;;;25.50;65.90;;;;;;7841766;28;20561;-54
2022/01/19 18:36:34;;;;;;;27.30;6.55;;;25.60;65.90;;;;;;7841797;28;20181;-53
2022/01/19 18:40:25;;;;;;;27.50;5.15;;;25.70;65.90;;;;;;7841425;28;20237;-51
2022/01/19 18:44:11;;;;;;;36.58;5.60;;;25.70;65.70;;;;;;7841207;28;20182;-52
2022/01/19 18:47:56;;;;;;;19.45;4.65;;;25.80;66.00;;;;;;7841152;28;20217;-52
2022/01/19 18:51:42;;;;;;;29.90;6.15;;;25.90;65.80;;;;;;7841357;28;20181;-50
2022/01/19 18:55:27;;;;;;;18.73;5.07;;;25.80;65.80;;;;;;7838377;28;20791;-54
2022/01/19 18:59:13;;;;;;;24.98;4.50;;;25.80;66.10;;;;;;7809826;28;20195;-55
2022/01/19 19:02:59;;;;;;;21.13;4.72;;;25.80;66.30;;;;;;7810112;28;20183;-50
2022/01/19 19:06:47;;;;;;;23.45;4.53;;;25.80;66.10;;;;;;7809872;28;20269;-54
2022/01/19 19:10:51;;;;;;;22.90;4.57;;;25.80;66.30;;;;;;7813063;28;20226;-53
2022/01/19 19:14:37;;;;;;;19.60;4.80;;;25.70;66.40;;;;;;7840422;28;20253;-53
2022/01/19 19:18:22;;;;;;;16.73;4.10;;;25.70;66.50;;;;;;7840210;28;20228;-54
2022/01/19 19:22:08;;;;;;;17.20;4.40;;;25.70;66.50;;;;;;7840734;28;20655;-52
2022/01/19 19:25:54;;;;;;;16.27;4.10;;;25.60;66.70;;;;;;7833563;28;20720;-53
2022/01/19 19:29:40;;;;;;;12.23;4.05;;;25.50;66.80;;;;;;7808855;28;20214;-53
2022/01/19 19:33:26;;;;;;;13.23;3.90;;;25.50;66.80;;;;;;7809285;28;20254;-53
2022/01/19 19:37:11;;;;;;;19.42;4.50;;;25.40;67.10;;;;;;7809232;28;20257;-51
2022/01/19 19:40:57;;;;;;;17.77;4.22;;;25.30;67.40;;;;;;7808348;28;20179;-50
2022/01/19 19:44:42;;;;;;;17.83;4.57;;;25.30;67.80;;;;;;7808438;28;20216;-51
2022/01/19 19:48:29;;;;;;;13.18;4.05;;;25.20;67.90;;;;;;7808409;28;20214;-54
2022/01/19 19:52:14;;;;;;;23.98;4.22;;;25.10;67.90;;;;;;7808658;28;20197;-50
2022/01/19 19:56:01;;;;;;;18.63;4.13;;;25.00;67.40;;;;;;7816258;28;20174;-52
2022/01/19 19:59:47;;;;;;;18.00;3.58;;;24.90;67.80;;;;;;7839032;28;20208;-50
2022/01/19 20:03:32;;;;;;;20.23;4.68;;;24.80;67.90;;;;;;7839382;28;20174;-54
2022/01/19 20:07:19;;;;;;;20.27;3.92;;;24.70;68.20;;;;;;7838486;28;20549;-53
2022/01/19 20:11:04;;;;;;;20.52;5.80;;;24.70;68.30;;;;;;7830029;28;20182;-55
2022/01/19 20:14:50;;;;;;;19.40;3.85;;;24.60;66.80;;;;;;7807761;28;20186;-50
2022/01/19 20:18:35;;;;;;;20.08;4.30;;;24.40;68.80;;;;;;7807514;28;20312;-54
2022/01/19 20:22:21;;;;;;;24.65;4.03;;;24.40;69.50;;;;;;7808365;28;20186;-55
2022/01/19 20:26:06;;;;;;;16.83;4.30;;;24.30;69.70;;;;;;7817442;28;20266;-51
2022/01/19 20:29:53;;;;;;;21.10;4.90;;;24.30;69.90;;;;;;7838036;28;20267;-51
2022/01/19 20:33:39;;;;;;;19.52;4.15;;;24.30;70.10;;;;;;7838480;28;20743;-53
2022/01/19 20:37:25;;;;;;;12.98;3.50;;;24.30;70.10;;;;;;7838448;28;20555;-50
2022/01/19 20:41:12;;;;;;;25.55;4.22;;;24.20;70.10;;;;;;7830169;28;20713;-50